Eko 4 — SVAR8 — position and weather

sailwx.info

Track history (hours):
 
Tides and Currents Weather Stations Pressure Air Temp Water Temp Dewpoint Dewpoint Depression Visibility Wind Speed Wind Dir Waves Ship Positions

Eko 4

Last reported at 2016-May-24 15:33 UTC. Time now 2016-May-24 15:47 UTC.
Position N 37°58' E 023°33'.

Length 88 m; draft 5.1 m.

Type: Ship (hazmat cat A). MMSI: 240912000.

Date/timePositionNaut miles runAvg speedWind from/ knotsBaromVisibWave heightAir tempDewpointWater temp
2016-May-24 15:33N 37°58' E 023°33'4 3.3
2016-May-24 14:26N 38°02' E 023°32'1 1.0
2016-May-24 13:33N 38°02' E 023°30'0 0.1
2016-May-24 12:16N 38°02' E 023°31'0 0.0
2016-May-24 10:10N 38°02' E 023°31'0 0.0
2016-May-24 09:13N 38°02' E 023°31'0 0.0
2016-May-24 08:28N 38°02' E 023°31'0 0.0
2016-May-24 07:22N 38°02' E 023°31'0 0.0
2016-May-23 17:22N 38°02' E 023°31'0 0.0
2016-May-23 16:28N 38°02' E 023°31'1 1.0
2016-May-23 15:33N 38°01' E 023°31'0 0.4
2016-May-23 14:28N 38°01' E 023°32'0 0.0
2016-May-23 13:31N 38°01' E 023°32'0 0.0
2016-May-23 12:31N 38°01' E 023°32'0 0.0
2016-May-23 11:31N 38°01' E 023°32'0 0.1
2016-May-23 10:31N 38°01' E 023°32'0 0.0
2016-May-23 09:28N 38°01' E 023°32'0 0.0
2016-May-23 08:33N 38°01' E 023°32'0 0.0
2016-May-23 07:33N 38°01' E 023°32'0 0.0
2016-May-23 06:33N 38°01' E 023°32'0 0.0
2016-May-23 05:33N 38°01' E 023°32'0 0.0
2016-May-23 04:33N 38°01' E 023°32'0 0.0
2016-May-23 03:33N 38°01' E 023°32'0 0.0
2016-May-23 02:34N 38°01' E 023°32'0 0.0
2016-May-23 01:33N 38°01' E 023°32'0 0.0
2016-May-23 00:33N 38°01' E 023°32'0 0.0
2016-May-22 23:33N 38°01' E 023°32'0 0.0
2016-May-22 22:33N 38°01' E 023°32'0 0.0
2016-May-22 21:33N 38°01' E 023°32'0 0.0
2016-May-22 20:33N 38°01' E 023°32'1 0.7
2016-May-22 19:33N 38°02' E 023°32'6 6.4
2016-May-22 18:33N 37°56' E 023°36'8 8.1
2016-May-22 17:33N 37°49' E 023°40'9 8.1
2016-May-22 16:26N 37°40' E 023°46'51 7.5
2016-May-22 09:33N 37°23' E 024°46'9 8.6
2016-May-22 08:33N 37°20' E 024°57'9 8.8
2016-May-22 07:33N 37°18' E 025°07'9 8.8
2016-May-22 06:33N 37°16' E 025°18'20 8.7
2016-May-22 04:13N 37°13' E 025°43'  
2016-May-19 16:14N 37°11' E 025°49'17 8.8
2016-May-19 14:16N 37°15' E 025°28'6 8.9
2016-May-19 13:33N 37°16' E 025°20'68 8.5
2016-May-19 05:32N 37°35' E 023°57'8 8.6
2016-May-19 04:33N 37°38' E 023°47'8 8.1
2016-May-19 03:33N 37°44' E 023°40'8 7.8
2016-May-19 02:33N 37°50' E 023°33'22 0.8
2016-May-17 22:23N 37°55' E 023°06'1 1.6
2016-May-17 21:29N 37°53' E 023°07'4 4.2
2016-May-17 20:33N 37°53' E 023°11'8 8.4
2016-May-17 19:33N 37°51' E 023°22'9 8.8
2016-May-17 18:33N 37°50' E 023°33'8 7.8
2016-May-17 17:33N 37°47' E 023°42'9 9.1
2016-May-17 16:33N 37°38' E 023°46'  
2016-May-15 07:11N 37°29' E 023°59'7 8.8
2016-May-15 06:26N 37°34' E 023°53'8 8.7
2016-May-15 05:33N 37°38' E 023°45'8 8.5
2016-May-15 04:33N 37°46' E 023°39'8 7.8
2016-May-15 03:33N 37°50' E 023°31'20 8.9
2016-May-15 01:20N 37°53' E 023°06'  
Track history (hours):
 
Tides and Currents Weather Stations Pressure Air Temp Water Temp Dewpoint Dewpoint Depression Visibility Wind Speed Wind Dir Waves Ship Positions

Eko 4

Last reported at 2016-May-24 15:33 UTC. Time now 2016-May-24 15:47 UTC.
Position N 37°58' E 023°33'.

Length 88 m; draft 5.1 m.

Type: Ship (hazmat cat A). MMSI: 240912000.

Date/timePositionNaut miles runAvg speedWind from/ knotsBaromVisibWave heightAir tempDewpointWater temp
2016-May-24 15:33N 37°58' E 023°33'4 3.3
2016-May-24 14:26N 38°02' E 023°32'1 1.0
2016-May-24 13:33N 38°02' E 023°30'0 0.1
2016-May-24 12:16N 38°02' E 023°31'0 0.0
2016-May-24 10:10N 38°02' E 023°31'0 0.0
2016-May-24 09:13N 38°02' E 023°31'0 0.0
2016-May-24 08:28N 38°02' E 023°31'0 0.0
2016-May-24 07:22N 38°02' E 023°31'0 0.0
2016-May-23 17:22N 38°02' E 023°31'0 0.0
2016-May-23 16:28N 38°02' E 023°31'1 1.0
2016-May-23 15:33N 38°01' E 023°31'0 0.4
2016-May-23 14:28N 38°01' E 023°32'0 0.0
2016-May-23 13:31N 38°01' E 023°32'0 0.0
2016-May-23 12:31N 38°01' E 023°32'0 0.0
2016-May-23 11:31N 38°01' E 023°32'0 0.1
2016-May-23 10:31N 38°01' E 023°32'0 0.0
2016-May-23 09:28N 38°01' E 023°32'0 0.0
2016-May-23 08:33N 38°01' E 023°32'0 0.0
2016-May-23 07:33N 38°01' E 023°32'0 0.0
2016-May-23 06:33N 38°01' E 023°32'0 0.0
2016-May-23 05:33N 38°01' E 023°32'0 0.0
2016-May-23 04:33N 38°01' E 023°32'0 0.0
2016-May-23 03:33N 38°01' E 023°32'0 0.0
2016-May-23 02:34N 38°01' E 023°32'0 0.0
2016-May-23 01:33N 38°01' E 023°32'0 0.0
2016-May-23 00:33N 38°01' E 023°32'0 0.0
2016-May-22 23:33N 38°01' E 023°32'0 0.0
2016-May-22 22:33N 38°01' E 023°32'0 0.0
2016-May-22 21:33N 38°01' E 023°32'0 0.0
2016-May-22 20:33N 38°01' E 023°32'1 0.7
2016-May-22 19:33N 38°02' E 023°32'6 6.4
2016-May-22 18:33N 37°56' E 023°36'8 8.1
2016-May-22 17:33N 37°49' E 023°40'9 8.1
2016-May-22 16:26N 37°40' E 023°46'51 7.5
2016-May-22 09:33N 37°23' E 024°46'9 8.6
2016-May-22 08:33N 37°20' E 024°57'9 8.8
2016-May-22 07:33N 37°18' E 025°07'9 8.8
2016-May-22 06:33N 37°16' E 025°18'20 8.7
2016-May-22 04:13N 37°13' E 025°43'  
2016-May-19 16:14N 37°11' E 025°49'17 8.8
2016-May-19 14:16N 37°15' E 025°28'6 8.9
2016-May-19 13:33N 37°16' E 025°20'68 8.5
2016-May-19 05:32N 37°35' E 023°57'8 8.6
2016-May-19 04:33N 37°38' E 023°47'8 8.1
2016-May-19 03:33N 37°44' E 023°40'8 7.8
2016-May-19 02:33N 37°50' E 023°33'22 0.8
2016-May-17 22:23N 37°55' E 023°06'1 1.6
2016-May-17 21:29N 37°53' E 023°07'4 4.2
2016-May-17 20:33N 37°53' E 023°11'8 8.4
2016-May-17 19:33N 37°51' E 023°22'9 8.8
2016-May-17 18:33N 37°50' E 023°33'8 7.8
2016-May-17 17:33N 37°47' E 023°42'9 9.1
2016-May-17 16:33N 37°38' E 023°46'  
2016-May-15 07:11N 37°29' E 023°59'7 8.8
2016-May-15 06:26N 37°34' E 023°53'8 8.7
2016-May-15 05:33N 37°38' E 023°45'8 8.5
2016-May-15 04:33N 37°46' E 023°39'8 7.8
2016-May-15 03:33N 37°50' E 023°31'20 8.9
2016-May-15 01:20N 37°53' E 023°06'  

Dump ship's entire track history